M I D A S
Marine Information and Data Acquisition System
Tripno 1512 of the Zeeleeuw from 2008-06-27 07:43:53 to 2008-06-27 10:21:05
Back to CruiseResearch ActivitiesStationsMapUnderway DataData graphs

EquipmentUnitsComment
TimeDGPSUTC
LatitudeDGPSDM.mWGS84
LongitudeDGPSDM.mWGS84
TemperatureSBE03/SBE38deg celciusITS90
ConductivitySBE21S/mITS90
SalinitySBE21 Practical Salinity Units
ChlorophylAChelsea fluorimeterg/lCalibrated in Aceton
Missing or incorrect values are displayed as -999
Sea surface data collected by the RV Zeeleeuw from 2008-06-27 07:43:57 to 2008-06-27 10:23:23
Time Latitude Longitude Temperature Conductivity Salinity ChlorophylA
2008-06-27 07:45:02 51°13.624 2°56.03 21.3132 0.011233 0.062605 -1.627401
2008-06-27 07:46:02 51°13.649 2°55.934 18.9664 3.92752 27.772642 3.944447
2008-06-27 07:47:02 51°13.694 2°55.826 18.5987 4.011746 29.422628 16.132866
2008-06-27 07:48:02 51°13.722 2°55.742 18.492 4.048154 29.902432 16.341811
2008-06-27 07:49:02 51°13.73 2°55.741 18.4693 4.000964 29.56192 15.714978
2008-06-27 07:50:02 51°13.719 2°55.721 18.4162 3.956475 29.210263 15.680154
2008-06-27 07:51:02 51°13.77 2°55.697 18.4326 3.996713 29.575546 15.889098
2008-06-27 07:52:02 51°13.881 2°55.602 18.4275 3.886275 28.652463 15.923922
2008-06-27 07:53:02 51°13.989 2°55.531 18.3367 3.875907 28.596468 16.411459
2008-06-27 07:54:02 51°14.09 2°55.466 18.314 3.956684 29.316774 16.724875
2008-06-27 07:55:02 51°14.184 2°55.373 18.3728 3.923086 29.034386 16.237338
2008-06-27 07:56:02 51°14.282 2°55.215 18.3802 3.810487 28.066495 15.192617
2008-06-27 07:57:02 51°14.395 2°55.014 18.1274 3.984788 29.56677 17.212412
2008-06-27 07:58:02 51°14.555 2°54.843 18.0592 4.235623 31.824935 22.2619
2008-06-27 07:59:02 51°14.722 2°54.678 18.0522 4.411016 33.293909 26.022897
2008-06-27 08:00:02 51°14.888 2°54.512 17.9942 4.458665 33.725299 25.988073
2008-06-27 08:01:02 51°15.059 2°54.361 17.9284 4.472265 33.890438 24.003102
2008-06-27 08:02:02 51°15.229 2°54.208 17.7707 4.473512 33.968369 18.535726
2008-06-27 08:03:02 51°15.399 2°54.053 17.5637 4.46656 34.075988 15.366737
2008-06-27 08:04:02 51°15.57 2°53.894 17.4944 4.456077 34.114208 17.978541
2008-06-27 08:05:02 51°15.741 2°53.737 17.4539 4.451613 34.119623 18.326782
2008-06-27 08:06:02 51°15.912 2°53.579 17.4632 4.447877 34.109757 16.655227
2008-06-27 08:07:02 51°16.086 2°53.427 17.4234 4.446423 34.096609 15.297089
2008-06-27 08:08:02 51°16.256 2°53.271 17.3992 4.444971 34.121168 11.153027
2008-06-27 08:09:02 51°16.426 2°53.119 17.3954 4.441234 34.109277 8.924287
2008-06-27 08:10:02 51°16.597 2°52.963 17.3924 4.446943 34.148912 7.670621
2008-06-27 08:11:02 51°16.778 2°52.831 17.3274 4.449643 34.198478 6.869668
2008-06-27 08:12:02 51°16.96 2°52.704 17.3407 4.447463 34.216958 5.790122
2008-06-27 08:13:02 51°17.144 2°52.587 17.3785 4.447671 34.201132 5.232937
2008-06-27 08:14:02 51°17.339 2°52.517 17.4172 4.450369 34.185118 5.476706
2008-06-27 08:15:02 51°17.544 2°52.535 17.43 4.44632 34.126696 5.68565
2008-06-27 08:16:02 51°17.749 2°52.544 17.4235 4.440091 34.072518 5.058817
2008-06-27 08:17:02 51°17.954 2°52.536 17.3832 4.438638 34.075517 4.989169
2008-06-27 08:18:02 51°18.16 2°52.516 17.3537 4.437289 34.092895 4.954345
2008-06-27 08:19:02 51°18.368 2°52.502 17.3405 4.440092 34.135234 5.581178
2008-06-27 08:20:02 51°18.574 2°52.491 17.3185 4.444141 34.186995 5.894594
2008-06-27 08:21:02 51°18.781 2°52.505 17.2828 4.445491 34.217596 6.451779
2008-06-27 08:22:02 51°18.988 2°52.537 17.2705 4.442793 34.228266 6.416955
2008-06-27 08:23:02 51°19.19 2°52.567 17.326 4.443104 34.213979 7.91439
2008-06-27 08:24:02 51°19.297 2°52.532 17.3719 4.424729 34.005086 7.705445
2008-06-27 08:25:02 51°19.301 2°52.444 17.377 4.410923 33.866268 8.401926
2008-06-27 08:26:02 51°19.313 2°52.347 17.3808 4.404383 33.804746 9.272528
2008-06-27 08:27:03 51°19.309 2°52.254 17.3777 4.40075 33.774887 9.934185
2008-06-27 08:28:02 51°19.311 2°52.205 17.3737 4.398466 33.755947 10.003833
2008-06-27 08:29:03 51°19.313 2°52.188 17.3717 4.397221 33.747922 10.944082
2008-06-27 08:30:02 51°19.308 2°52.19 17.3679 4.396287 33.743238 11.675387
2008-06-27 08:31:02 51°19.294 2°52.173 17.3679 4.395975 33.740564 12.511165
2008-06-27 08:32:02 51°19.279 2°52.149 17.3751 4.393795 33.707181 8.645695
2008-06-27 08:33:02 51°19.27 2°52.14 17.387 4.396183 33.72367 8.715343
2008-06-27 08:34:02 51°19.262 2°52.143 17.3888 4.397324 33.727469 10.177953
2008-06-27 08:35:02 51°19.256 2°52.146 17.4009 4.398155 33.729928 11.884332
2008-06-27 08:36:02 51°19.249 2°52.151 17.3991 4.399089 33.734611 11.431619
2008-06-27 08:37:02 51°19.244 2°52.156 17.3895 4.400646 33.752637 11.396795
2008-06-27 08:38:02 51°19.241 2°52.164 17.3971 4.401165 33.760426 12.023628
2008-06-27 08:39:02 51°19.238 2°52.172 17.3986 4.40158 33.759319 11.501267
2008-06-27 08:40:02 51°19.236 2°52.18 17.3972 4.40241 33.766445 12.511165
2008-06-27 08:41:02 51°19.236 2°52.183 17.3939 4.402307 33.766889 12.720109
2008-06-27 08:42:02 51°19.24 2°52.172 17.3974 4.402929 33.771566 12.998701
2008-06-27 08:43:02 51°19.249 2°52.166 17.401 4.402826 33.768006 11.988804
2008-06-27 08:44:02 51°19.261 2°52.164 17.4003 4.403864 33.778915 12.406692
2008-06-27 08:45:03 51°19.277 2°52.166 17.3963 4.40241 33.763776 13.695182
2008-06-27 08:46:02 51°19.29 2°52.172 17.3959 4.402203 33.765331 11.501267
2008-06-27 08:47:03 51°19.302 2°52.185 17.423 4.401891 33.759323 9.307352
2008-06-27 08:48:02 51°19.313 2°52.197 17.4232 4.403656 33.753125 7.635797
2008-06-27 08:49:02 51°19.323 2°52.202 17.4183 4.403967 33.751131 6.556251
2008-06-27 08:50:02 51°19.329 2°52.189 17.3985 4.401372 33.746869 11.570915
2008-06-27 08:51:02 51°19.328 2°52.161 17.3853 4.400231 33.745073 13.486238
2008-06-27 08:52:02 51°19.315 2°52.128 17.3929 4.399608 33.747732 12.859405
2008-06-27 08:53:02 51°19.296 2°52.095 17.395 4.399815 33.742178 12.058452
2008-06-27 08:54:02 51°19.283 2°52.061 17.399 4.401269 33.754646 8.819815
2008-06-27 08:55:02 51°19.278 2°52.044 17.3993 4.402929 33.766895 8.08851
2008-06-27 08:56:02 51°19.275 2°52.038 17.3939 4.403345 33.77246 9.585944
2008-06-27 08:57:03 51°19.271 2°52.04 17.3943 4.402514 33.768003 11.988804
2008-06-27 08:58:02 51°19.268 2°52.049 17.4045 4.402514 33.761332 13.103174
2008-06-27 08:59:03 51°19.264 2°52.063 17.4025 4.40376 33.770017 13.346942
2008-06-27 09:00:02 51°19.261 2°52.08 17.4011 4.404694 33.779367 14.635432
2008-06-27 09:01:03 51°19.258 2°52.099 17.4111 4.405109 33.78026 14.287191
2008-06-27 09:02:02 51°19.251 2°52.118 17.4216 4.405939 33.779378 14.113071
2008-06-27 09:03:03 51°19.243 2°52.133 17.4293 4.407911 33.788956 11.431619
2008-06-27 09:04:02 51°19.234 2°52.142 17.4289 4.409884 33.801867 9.028759
2008-06-27 09:05:03 51°19.225 2°52.15 17.4342 4.410506 33.804539 11.745035
2008-06-27 09:06:02 51°19.217 2°52.158 17.4406 4.411856 33.81411 10.143129
2008-06-27 09:07:02 51°19.196 2°52.143 17.4442 4.41362 33.823902 9.481472
2008-06-27 09:08:03 51°19.15 2°52.2 17.4402 4.418188 33.863738 9.794888
2008-06-27 09:09:02 51°19.135 2°52.404 17.3298 4.425869 33.924942 5.68565
2008-06-27 09:10:02 51°19.118 2°52.648 17.287 4.445179 34.197967 3.909623
2008-06-27 09:11:02 51°19.068 2°52.802 17.2822 4.445076 34.222836 4.675753
2008-06-27 09:12:02 51°19.01 2°52.905 17.3207 4.446737 34.226294 4.780225
2008-06-27 09:13:02 51°18.936 2°52.941 17.3686 4.450266 34.227539 5.999067
2008-06-27 09:14:02 51°18.858 2°52.983 17.3874 4.450473 34.1948 6.033891
2008-06-27 09:15:03 51°18.787 2°52.97 17.3862 4.448189 34.164347 4.815049
2008-06-27 09:16:02 51°18.738 2°52.905 17.3769 4.445905 34.146738 5.790122
2008-06-27 09:17:03 51°18.686 2°52.837 17.4028 4.446217 34.14739 4.919521
2008-06-27 09:18:02 51°18.646 2°52.788 17.3758 4.447358 34.153156 4.780225
2008-06-27 09:19:03 51°18.629 2°52.752 17.39 4.446321 34.157061 5.023993
2008-06-27 09:20:02 51°18.631 2°52.71 17.3905 4.448708 34.162732 5.51153
2008-06-27 09:21:03 51°18.639 2°52.705 17.3875 4.448916 34.167218 7.252733
2008-06-27 09:22:02 51°18.646 2°52.714 17.3806 4.448189 34.169076 9.690416
2008-06-27 09:23:03 51°18.652 2°52.728 17.4013 4.4485 34.165674 6.486603
2008-06-27 09:24:03 51°18.658 2°52.74 17.3985 4.450369 34.164181 4.153392
2008-06-27 09:25:02 51°18.662 2°52.754 17.4193 4.450888 34.162568 4.22304
2008-06-27 09:26:03 51°18.666 2°52.768 17.4127 4.450576 34.163266 3.561383
2008-06-27 09:27:02 51°18.669 2°52.781 17.4156 4.449019 34.149211 3.491735
2008-06-27 09:28:02 51°18.672 2°52.794 17.4156 4.448915 34.144273 3.317614
2008-06-27 09:29:02 51°18.675 2°52.807 17.4053 4.447877 34.146145 3.422087
2008-06-27 09:30:02 51°18.678 2°52.819 17.4068 4.44767 34.140988 3.387263
2008-06-27 09:31:02 51°18.681 2°52.832 17.4068 4.447358 34.138987 3.491735
2008-06-27 09:32:02 51°18.684 2°52.844 17.3951 4.44632 34.136811 3.700679
2008-06-27 09:33:03 51°18.686 2°52.857 17.4052 4.445801 34.131676 3.839975
2008-06-27 09:34:02 51°18.687 2°52.868 17.4169 4.446735 34.131612 3.526559
2008-06-27 09:35:03 51°18.689 2°52.881 17.4248 4.447254 34.132026 3.422087
2008-06-27 09:36:02 51°18.69 2°52.892 17.4422 4.448707 34.128335 3.247966
2008-06-27 09:37:03 51°18.69 2°52.904 17.4282 4.448292 34.118034 3.28279
2008-06-27 09:38:03 51°18.69 2°52.914 17.4304 4.446839 34.11431 3.247966
2008-06-27 09:39:03 51°18.69 2°52.925 17.428 4.446216 34.105595 3.317614
2008-06-27 09:40:03 51°18.69 2°52.936 17.4295 4.446008 34.109198 3.28279
2008-06-27 09:41:03 51°18.69 2°52.946 17.4397 4.445385 34.104523 3.178318
2008-06-27 09:42:03 51°18.69 2°52.955 17.4298 4.445801 34.103376 3.143494
2008-06-27 09:43:02 51°18.69 2°52.964 17.4471 4.445801 34.10001 3.213142
2008-06-27 09:44:03 51°18.69 2°52.972 17.4492 4.447046 34.099937 3.213142
2008-06-27 09:45:02 51°18.689 2°52.981 17.4627 4.447876 34.098319 3.10867
2008-06-27 09:46:02 51°18.688 2°52.989 17.4332 4.447046 34.102628 3.247966
2008-06-27 09:47:03 51°18.687 2°52.998 17.4562 4.446008 34.097755 3.247966
2008-06-27 09:48:02 51°18.689 2°53.008 17.4796 4.447876 34.096302 3.073846
2008-06-27 09:49:03 51°18.712 2°53.044 17.4595 4.449745 34.096869 4.675753
2008-06-27 09:50:02 51°18.699 2°53.121 17.4532 4.447669 34.099228 6.416955
2008-06-27 09:51:02 51°18.641 2°53.116 17.4654 4.447565 34.096319 4.362336
2008-06-27 09:52:02 51°18.545 2°53.031 17.4742 4.44798 34.09383 4.257864
2008-06-27 09:53:02 51°18.409 2°52.914 17.4785 4.448707 34.087965 4.780225
2008-06-27 09:54:02 51°18.266 2°52.79 17.4963 4.448291 34.07903 5.023993
2008-06-27 09:55:02 51°18.121 2°52.671 17.508 4.449641 34.073815 5.058817
2008-06-27 09:56:02 51°17.964 2°52.591 17.5171 4.449744 34.075376 5.163289
2008-06-27 09:57:02 51°17.806 2°52.515 17.5259 4.452236 34.084649 4.919521
2008-06-27 09:58:02 51°17.646 2°52.454 17.5329 4.454727 34.099958 4.675753
2008-06-27 09:59:02 51°17.486 2°52.394 17.5316 4.457634 34.119493 4.536456
2008-06-27 10:00:02 51°17.323 2°52.371 17.5041 4.460748 34.152229 4.153392
2008-06-27 10:01:02 51°17.159 2°52.389 17.4763 4.461891 34.181532 4.327512
2008-06-27 10:02:02 51°17.004 2°52.469 17.4347 4.461061 34.209458 3.700679
2008-06-27 10:03:02 51°16.856 2°52.583 17.3937 4.460023 34.234987 4.501632
2008-06-27 10:04:02 51°16.71 2°52.702 17.3959 4.458985 34.23959 4.954345
2008-06-27 10:05:02 51°16.563 2°52.82 17.4557 4.458673 34.209204 5.476706
2008-06-27 10:06:02 51°16.415 2°52.937 17.4763 4.456285 34.177903 6.80002
2008-06-27 10:07:02 51°16.27 2°53.067 17.4432 4.460645 34.184992 5.650826
2008-06-27 10:08:02 51°16.123 2°53.192 17.4598 4.457635 34.18949 6.939316
2008-06-27 10:09:02 51°15.974 2°53.311 17.5049 4.454624 34.147474 9.133231
2008-06-27 10:10:02 51°15.825 2°53.428 17.5198 4.455558 34.112446 11.814684
2008-06-27 10:11:02 51°15.676 2°53.548 17.537 4.45753 34.122633 11.849508
2008-06-27 10:12:02 51°15.528 2°53.664 17.5485 4.460644 34.133197 13.938951
2008-06-27 10:13:02 51°15.379 2°53.781 17.5749 4.462305 34.138024 14.8792
2008-06-27 10:14:02 51°15.232 2°53.898 17.8188 4.465315 34.10613 14.983672
2008-06-27 10:15:02 51°15.085 2°54.016 17.9313 4.483687 34.062167 16.690051
2008-06-27 10:16:02 51°14.939 2°54.136 18.0032 4.488253 34.026756 19.267031
2008-06-27 10:17:02 51°14.807 2°54.291 18.041 4.488876 33.991078 22.679788
2008-06-27 10:18:02 51°14.683 2°54.457 18.1445 4.466761 33.709504 27.102443
2008-06-27 10:19:02 51°14.566 2°54.633 18.1957 4.440496 33.493612 25.396065
2008-06-27 10:20:02 51°14.46 2°54.825 18.2987 4.412571 33.183644 25.221944
2008-06-27 10:21:02 51°14.364 2°55.032 18.104 4.334518 32.498677 23.306621
2008-06-27 10:22:02 51°14.276 2°55.221 18.0101 4.342511 32.66256 23.028029
2008-06-27 10:23:02 51°14.175 2°55.365 18.1211 4.3312 32.655252 21.983307